This is the latest recevied weather packets stored in our database for station/object N1TKS. If no packets are shown the sender has not sent any weather packets the latest 10 day(s).
| Time | Temp. | Humidity | Pressure | Rain* | Wind** | Luminosity | Snow |
|---|---|---|---|---|---|---|---|
| 1778001774 | 24.44° C | 53% | 1009.9 hPa | 0 mm | - | - | - |
| 1778001732 | 24.44° C | 53% | 1009.9 hPa | 0 mm | - | - | - |
| 1778001115 | 24.44° C | 54% | 1010 hPa | 0 mm | - | - | - |
| 1777999802 | 23.33° C | 57% | 1010.6 hPa | 0 mm | - | - | - |
| 1777999796 | 22.78° C | 57% | 1010.7 hPa | 0 mm | - | - | - |
| 1777999616 | 23.89° C | 54% | 1010.3 hPa | 0 mm | - | - | - |
| 1777999014 | 23.89° C | 55% | 1010.4 hPa | 0 mm | - | - | - |
| 1777998759 | 23.33° C | 57% | 1010.5 hPa | 0 mm | - | - | - |
| 1777998715 | 23.33° C | 57% | 1010.5 hPa | 0 mm | - | - | - |
| 1777998413 | 23.33° C | 57% | 1010.6 hPa | 0 mm | - | - | - |
| 1777998114 | 22.78° C | 57% | 1010.7 hPa | 0 mm | - | - | - |
| 1777997955 | 22.78° C | 56% | 1010.6 hPa | 0 mm | - | - | - |
| 1777997881 | 22.78° C | 59% | 1011 hPa | 0 mm | - | - | - |
| 1777997814 | 22.78° C | 56% | 1010.6 hPa | 0 mm | - | - | - |
| 1777997673 | 22.78° C | 58% | 1010.6 hPa | 0 mm | - | - | - |
| 1777997587 | 22.78° C | 58% | 1010.6 hPa | 0 mm | - | - | - |
| 1777997514 | 22.78° C | 58% | 1010.6 hPa | 0 mm | - | - | - |
| 1777996775 | 22.78° C | 59% | 1011 hPa | 0 mm | - | - | - |
| 1777996614 | 22.78° C | 59% | 1011 hPa | 0 mm | - | - | - |
| 1777995950 | 21.67° C | 63% | 1011.2 hPa | 0 mm | - | - | - |
| 1777995414 | 22.78° C | 57% | 1011 hPa | 0 mm | - | - | - |
| 1777995253 | 22.78° C | 60% | 1011.1 hPa | 0 mm | - | - | - |
| 1777995118 | 22.78° C | 60% | 1011.1 hPa | 0 mm | - | - | - |
| 1777994951 | 22.22° C | 61% | 1011.1 hPa | 0 mm | - | - | - |
| 1777994814 | 22.22° C | 61% | 1011.1 hPa | 0 mm | - | - | - |
* Rain latest hour (hover to see other rain measurements)
** Current wind speed in m/s (hover to see current wind gust speed)